Time;durP1;ratioP1;P1;durP2;ratioP2;P2;SDS_P1;SDS_P2;PMS_P1;PMS_P2;Temp;Humidity;BMP_temperature;BMP_pressure;BME280_temperature;BME280_humidity;BME280_pressure;Samples;Min_cycle;Max_cycle;Signal;HPM_P1;HPM_P2
2023/08/02 00:00:33;;;;;;;7.68;3.55;;;15.80;59.00;;;;;;5052792;28;20037;-69
2023/08/02 00:02:58;;;;;;;10.27;3.95;;;15.90;58.80;;;;;;5052910;28;20033;-69
2023/08/02 00:05:24;;;;;;;8.65;4.28;;;15.90;84.80;;;;;;5056052;28;20049;-68
2023/08/02 00:07:50;;;;;;;11.40;4.10;;;15.90;72.00;;;;;;5056763;28;20596;-69
2023/08/02 00:10:16;;;;;;;11.02;3.60;;;15.80;68.50;;;;;;5056361;28;20032;-69
2023/08/02 00:12:41;;;;;;;11.75;3.63;;;15.90;76.70;;;;;;5055427;28;20490;-69
2023/08/02 00:15:07;;;;;;;10.05;4.55;;;15.90;81.00;;;;;;5056207;28;20064;-69
2023/08/02 00:17:33;;;;;;;6.63;3.42;;;15.80;73.00;;;;;;5056492;28;20039;-69
2023/08/02 00:19:58;;;;;;;11.35;4.15;;;15.80;81.10;;;;;;5056256;28;20506;-69
2023/08/02 00:22:24;;;;;;;12.43;3.72;;;15.90;72.50;;;;;;5056353;28;20025;-69
2023/08/02 00:24:49;;;;;;;14.13;4.43;;;15.90;74.40;;;;;;5055956;28;20029;-69
2023/08/02 00:27:15;;;;;;;11.25;4.05;;;15.80;84.30;;;;;;5056328;28;20033;-69
2023/08/02 00:29:40;;;;;;;12.52;4.10;;;15.70;89.10;;;;;;5056295;28;20025;-69
2023/08/02 00:32:06;;;;;;;10.65;3.75;;;15.70;92.10;;;;;;5055993;28;20025;-69
2023/08/02 00:34:32;;;;;;;8.20;3.90;;;15.70;94.10;;;;;;5056221;28;20430;-69
2023/08/02 00:36:57;;;;;;;11.20;4.18;;;15.70;99.70;;;;;;5055948;28;20087;-69
2023/08/02 00:39:23;;;;;;;10.43;3.72;;;15.60;99.90;;;;;;5055989;28;20493;-69
2023/08/02 00:41:49;;;;;;;10.02;4.30;;;15.60;99.90;;;;;;5055917;28;20041;-69
2023/08/02 00:44:14;;;;;;;9.93;4.00;;;15.60;99.90;;;;;;5055758;28;20032;-69
2023/08/02 00:46:40;;;;;;;10.73;3.90;;;15.70;99.90;;;;;;5055635;28;20035;-69
2023/08/02 00:49:05;;;;;;;12.07;3.83;;;15.70;99.90;;;;;;5055750;28;20051;-70
2023/08/02 00:51:33;;;;;;;13.77;4.40;;;15.60;99.90;;;;;;5055637;28;20021;-69
2023/08/02 00:54:02;;;;;;;11.85;4.43;;;15.70;99.90;;;;;;5055676;28;20087;-69
2023/08/02 00:56:29;;;;;;;10.93;4.00;;;15.70;99.90;;;;;;5055635;28;20028;-69
2023/08/02 00:58:54;;;;;;;15.00;4.00;;;15.80;99.90;;;;;;5055596;28;20067;-69
2023/08/02 01:01:20;;;;;;;10.20;3.75;;;15.80;99.90;;;;;;5055561;28;20421;-69
2023/08/02 01:03:45;;;;;;;8.68;3.85;;;15.80;99.90;;;;;;5055201;28;20049;-68
2023/08/02 01:06:25;;;;;;;9.63;4.38;;;15.70;99.90;;;;;;5055299;28;20029;-70
2023/08/02 01:09:07;;;;;;;12.75;4.03;;;15.70;99.90;;;;;;5055535;28;20062;-69
2023/08/02 01:11:41;;;;;;;13.43;4.47;;;15.70;99.90;;;;;;5055298;28;20112;-69
2023/08/02 01:14:09;;;;;;;11.68;4.30;;;15.70;99.90;;;;;;5054847;28;20467;-69
2023/08/02 01:16:37;;;;;;;12.35;4.65;;;15.60;99.90;;;;;;5055098;28;20033;-68
2023/08/02 01:19:08;;;;;;;12.05;4.40;;;15.60;99.90;;;;;;5055168;28;20483;-68
2023/08/02 01:21:34;;;;;;;14.75;4.15;;;15.60;99.90;;;;;;5055321;28;20036;-70
2023/08/02 01:24:00;;;;;;;8.48;3.95;;;15.60;99.90;;;;;;5055070;28;20506;-70
2023/08/02 01:26:30;;;;;;;12.27;3.92;;;15.50;99.90;;;;;;5054985;28;20033;-69
2023/08/02 01:28:57;;;;;;;11.82;4.47;;;15.50;99.90;;;;;;5055145;28;20029;-68
2023/08/02 01:31:23;;;;;;;11.88;4.55;;;15.50;99.90;;;;;;5054805;28;20025;-69
2023/08/02 01:33:53;;;;;;;13.02;4.43;;;15.50;99.90;;;;;;5054992;28;20082;-69
2023/08/02 01:36:19;;;;;;;8.27;3.95;;;15.40;99.90;;;;;;5053838;28;20032;-69
2023/08/02 01:38:45;;;;;;;11.48;4.07;;;15.40;99.90;;;;;;5054798;28;20112;-70
2023/08/02 01:41:10;;;;;;;10.13;4.30;;;15.40;99.90;;;;;;5055011;28;20147;-69
2023/08/02 01:43:36;;;;;;;8.95;4.25;;;15.40;99.90;;;;;;5054743;28;20024;-69
2023/08/02 01:46:02;;;;;;;13.85;4.32;;;15.40;99.90;;;;;;5054876;28;20024;-69
2023/08/02 01:48:27;;;;;;;9.30;3.85;;;15.40;99.90;;;;;;5054867;28;20048;-70
2023/08/02 01:50:53;;;;;;;8.98;4.03;;;15.40;99.90;;;;;;5054900;28;20394;-68
2023/08/02 01:53:18;;;;;;;12.05;4.18;;;15.40;99.90;;;;;;5054563;28;20028;-69
2023/08/02 01:55:44;;;;;;;10.57;4.28;;;15.40;99.90;;;;;;5055191;28;20065;-69
2023/08/02 01:58:10;;;;;;;15.30;4.30;;;15.40;99.90;;;;;;5055697;28;20060;-69
2023/08/02 02:00:35;;;;;;;11.32;4.70;;;15.40;99.90;;;;;;5056307;28;20048;-69
2023/08/02 02:03:01;;;;;;;11.90;3.72;;;15.40;99.90;;;;;;5056189;28;20419;-70
2023/08/02 02:05:27;;;;;;;10.25;4.15;;;15.40;99.90;;;;;;5055746;28;20057;-69
2023/08/02 02:07:52;;;;;;;9.55;3.70;;;15.40;99.90;;;;;;5055876;28;20032;-70
2023/08/02 02:10:18;;;;;;;7.45;4.18;;;15.40;99.90;;;;;;5055840;28;20021;-69
2023/08/02 02:12:43;;;;;;;11.60;4.13;;;15.40;99.90;;;;;;5055924;28;20080;-69
2023/08/02 02:15:09;;;;;;;9.75;4.18;;;15.30;99.90;;;;;;5055752;28;20033;-70
2023/08/02 02:17:34;;;;;;;10.75;4.15;;;15.30;99.90;;;;;;5054578;28;20037;-70
2023/08/02 02:20:00;;;;;;;9.77;3.47;;;15.30;99.90;;;;;;5054927;28;20029;-70
2023/08/02 02:22:25;;;;;;;15.40;5.03;;;15.10;99.90;;;;;;5054628;28;20116;-70
2023/08/02 02:24:51;;;;;;;9.48;3.75;;;15.00;99.90;;;;;;5054963;28;20113;-70
2023/08/02 02:27:16;;;;;;;9.32;4.15;;;15.00;99.90;;;;;;5053792;28;20028;-70
2023/08/02 02:29:42;;;;;;;9.55;3.80;;;15.00;99.90;;;;;;5054512;28;20057;-69
2023/08/02 02:32:08;;;;;;;9.35;3.75;;;14.90;99.90;;;;;;5053945;28;20543;-69
2023/08/02 02:34:33;;;;;;;10.90;3.97;;;15.00;99.90;;;;;;5053864;28;20029;-69
2023/08/02 02:36:59;;;;;;;8.75;4.15;;;15.00;99.90;;;;;;5053826;28;20036;-69
2023/08/02 02:39:25;;;;;;;9.20;3.78;;;15.00;99.90;;;;;;5053936;28;20044;-69
2023/08/02 02:41:50;;;;;;;10.18;3.70;;;14.90;99.90;;;;;;5053646;28;20032;-70
2023/08/02 02:44:16;;;;;;;7.50;3.63;;;14.90;99.90;;;;;;5053631;28;20029;-70
2023/08/02 02:46:41;;;;;;;11.45;3.92;;;14.80;99.90;;;;;;5053518;28;20029;-69
2023/08/02 02:49:07;;;;;;;6.28;4.05;;;14.90;99.90;;;;;;5053587;28;20475;-69
2023/08/02 02:51:32;;;;;;;6.28;3.95;;;14.80;99.90;;;;;;5053574;28;20033;-69
2023/08/02 02:53:58;;;;;;;7.30;3.53;;;14.90;99.90;;;;;;5053296;28;20478;-73
2023/08/02 02:56:24;;;;;;;10.18;4.50;;;15.00;99.90;;;;;;5053692;28;20127;-69
2023/08/02 02:58:49;;;;;;;9.57;3.92;;;15.00;99.90;;;;;;5053508;28;20039;-69
2023/08/02 03:01:15;;;;;;;9.35;4.00;;;14.90;99.90;;;;;;5053284;28;20037;-68
2023/08/02 03:03:40;;;;;;;7.43;4.10;;;14.90;99.90;;;;;;5053385;28;20163;-69
2023/08/02 03:06:06;;;;;;;10.23;4.25;;;14.90;99.90;;;;;;5053083;28;20029;-69
2023/08/02 03:08:32;;;;;;;8.65;4.18;;;14.90;99.90;;;;;;5053427;28;20032;-69
2023/08/02 03:10:57;;;;;;;7.82;3.60;;;14.90;99.90;;;;;;5053181;28;20029;-69
2023/08/02 03:13:23;;;;;;;9.23;3.92;;;14.80;99.90;;;;;;5053203;28;20036;-69
2023/08/02 03:15:49;;;;;;;8.13;4.30;;;14.70;99.90;;;;;;5053290;28;20036;-69
2023/08/02 03:18:14;;;;;;;9.32;3.90;;;14.80;99.90;;;;;;5052153;28;20025;-69
2023/08/02 03:20:41;;;;;;;7.07;3.80;;;14.70;99.90;;;;;;5053083;28;20031;-69
2023/08/02 03:23:07;;;;;;;9.30;3.35;;;14.70;99.90;;;;;;5053338;28;20025;-72
2023/08/02 03:25:33;;;;;;;9.20;4.00;;;14.70;99.90;;;;;;5053392;28;20036;-69
2023/08/02 03:27:58;;;;;;;13.85;4.68;;;14.70;99.90;;;;;;5053116;28;20393;-69
2023/08/02 03:30:24;;;;;;;7.53;4.07;;;14.80;99.90;;;;;;5053093;28;20032;-70
2023/08/02 03:32:49;;;;;;;9.32;4.18;;;14.80;99.90;;;;;;5052950;28;20048;-69
2023/08/02 03:35:15;;;;;;;7.32;4.28;;;14.90;99.90;;;;;;5052956;28;20060;-69
2023/08/02 03:37:40;;;;;;;8.55;4.18;;;14.80;99.90;;;;;;5053800;28;20052;-68
2023/08/02 03:40:07;;;;;;;8.82;3.92;;;14.90;99.90;;;;;;5056993;28;20048;-69
2023/08/02 03:42:32;;;;;;;8.70;4.25;;;14.90;99.90;;;;;;5057320;28;20100;-68
2023/08/02 03:44:58;;;;;;;10.23;5.10;;;15.00;99.90;;;;;;5056962;28;20581;-69
2023/08/02 03:47:23;;;;;;;15.38;5.70;;;15.10;99.90;;;;;;5056969;28;20096;-68
2023/08/02 03:49:49;;;;;;;12.07;4.25;;;15.10;99.90;;;;;;5056735;28;20391;-68
2023/08/02 03:52:14;;;;;;;8.77;4.60;;;15.10;99.90;;;;;;5056971;28;20037;-69
2023/08/02 03:54:40;;;;;;;9.60;4.40;;;15.00;99.90;;;;;;5056712;28;20162;-69
2023/08/02 03:57:07;;;;;;;7.85;4.07;;;15.00;99.90;;;;;;5056768;28;20040;-69
2023/08/02 03:59:32;;;;;;;7.07;3.75;;;15.10;99.90;;;;;;5056855;28;20499;-69
2023/08/02 04:01:58;;;;;;;8.50;4.57;;;15.10;99.90;;;;;;5056855;28;20033;-69
2023/08/02 04:04:23;;;;;;;8.20;4.32;;;15.10;99.90;;;;;;5056558;28;20052;-68
2023/08/02 04:06:49;;;;;;;14.00;4.38;;;15.10;99.90;;;;;;5056405;28;20441;-69
2023/08/02 04:09:15;;;;;;;7.13;4.00;;;15.20;99.90;;;;;;5056439;28;20147;-69
2023/08/02 04:11:40;;;;;;;8.13;4.60;;;15.20;99.90;;;;;;5056580;28;20021;-68
2023/08/02 04:14:06;;;;;;;9.38;4.93;;;15.20;99.90;;;;;;5056465;28;20025;-69
2023/08/02 04:16:31;;;;;;;9.40;4.22;;;15.20;99.90;;;;;;5056382;28;20025;-69
2023/08/02 04:18:57;;;;;;;10.30;4.47;;;15.20;99.90;;;;;;5056331;28;20087;-69
2023/08/02 04:21:22;;;;;;;11.00;4.28;;;15.20;99.90;;;;;;5056386;28;20029;-68
2023/08/02 04:23:50;;;;;;;8.10;4.45;;;15.30;99.90;;;;;;5056151;28;20021;-69
2023/08/02 04:26:15;;;;;;;8.90;4.57;;;15.30;99.90;;;;;;5056003;28;20064;-68
2023/08/02 04:28:41;;;;;;;6.53;4.35;;;15.30;99.90;;;;;;5055137;28;20021;-69
2023/08/02 04:31:07;;;;;;;5.07;4.20;;;15.30;99.90;;;;;;5056274;28;20025;-69
2023/08/02 04:33:32;;;;;;;11.38;5.15;;;15.30;99.90;;;;;;5056066;28;20486;-69
2023/08/02 04:35:59;;;;;;;8.80;4.45;;;15.40;99.90;;;;;;5056163;28;20074;-68
2023/08/02 04:38:25;;;;;;;11.23;4.65;;;15.40;99.90;;;;;;5054943;28;20028;-69
2023/08/02 04:40:51;;;;;;;12.40;5.53;;;15.40;99.90;;;;;;5056016;28;20033;-69
2023/08/02 04:43:16;;;;;;;10.95;4.78;;;15.50;99.90;;;;;;5055829;28;20506;-70
2023/08/02 04:45:42;;;;;;;7.50;4.88;;;15.60;99.90;;;;;;5055783;28;20047;-69
2023/08/02 04:48:08;;;;;;;11.45;5.18;;;15.60;99.90;;;;;;5055918;28;20100;-69
2023/08/02 04:50:34;;;;;;;7.88;4.47;;;15.70;99.90;;;;;;5055143;28;20115;-68
2023/08/02 04:52:59;;;;;;;8.35;4.65;;;15.70;99.90;;;;;;5055765;28;20025;-69
2023/08/02 04:55:25;;;;;;;6.57;4.30;;;15.70;99.90;;;;;;5055731;28;20540;-68
2023/08/02 04:57:51;;;;;;;13.73;5.20;;;15.80;99.90;;;;;;5055543;28;20108;-69
2023/08/02 05:00:17;;;;;;;8.90;4.72;;;15.90;99.90;;;;;;5055486;28;20060;-69
2023/08/02 05:02:42;;;;;;;7.85;4.32;;;15.90;99.90;;;;;;5055679;28;20105;-69
2023/08/02 05:05:08;;;;;;;12.50;5.53;;;16.00;99.90;;;;;;5055171;28;20469;-68
2023/08/02 05:07:35;;;;;;;8.50;4.35;;;16.10;99.90;;;;;;5055402;28;20025;-69
2023/08/02 05:10:04;;;;;;;11.23;4.95;;;16.10;99.90;;;;;;5054009;28;20025;-69
2023/08/02 05:12:34;;;;;;;8.85;4.70;;;16.10;99.90;;;;;;5055183;28;20025;-69
2023/08/02 05:15:00;;;;;;;10.90;4.65;;;16.20;99.90;;;;;;5055329;28;20479;-68
2023/08/02 05:17:28;;;;;;;9.63;4.75;;;16.30;99.90;;;;;;5055542;28;20158;-69
2023/08/02 05:19:53;;;;;;;9.70;4.53;;;16.30;99.90;;;;;;5055508;28;20025;-69
2023/08/02 05:22:19;;;;;;;11.80;5.05;;;16.40;99.90;;;;;;5054998;28;20071;-69
2023/08/02 05:24:44;;;;;;;7.57;4.10;;;16.40;99.90;;;;;;5054793;28;20123;-68
2023/08/02 05:27:10;;;;;;;7.50;4.82;;;16.50;99.90;;;;;;5054940;28;20032;-69
2023/08/02 05:29:35;;;;;;;13.45;4.82;;;16.60;99.90;;;;;;5055178;28;20021;-69
2023/08/02 05:32:01;;;;;;;11.50;4.50;;;16.70;99.90;;;;;;5054822;28;20429;-69
2023/08/02 05:34:26;;;;;;;9.18;4.60;;;16.80;99.90;;;;;;5055109;28;20029;-68
2023/08/02 05:36:52;;;;;;;11.07;4.95;;;16.80;99.90;;;;;;5055000;28;20029;-68
2023/08/02 05:39:17;;;;;;;9.85;4.32;;;16.80;99.90;;;;;;5054790;28;20421;-69
2023/08/02 05:41:43;;;;;;;9.90;4.47;;;16.70;99.90;;;;;;5054704;28;20025;-68
2023/08/02 05:44:08;;;;;;;8.65;4.53;;;16.60;99.90;;;;;;5054736;28;20031;-69
2023/08/02 05:46:34;;;;;;;10.32;4.95;;;16.60;99.90;;;;;;5054388;28;20033;-69
2023/08/02 05:49:00;;;;;;;7.90;4.72;;;16.50;99.90;;;;;;5054766;28;20536;-69
2023/08/02 05:51:26;;;;;;;10.25;4.85;;;16.50;99.90;;;;;;5054725;28;20029;-69
2023/08/02 05:53:52;;;;;;;8.68;4.50;;;16.50;99.90;;;;;;5054531;28;20474;-69
2023/08/02 05:56:17;;;;;;;10.48;4.72;;;16.50;99.90;;;;;;5054492;28;20028;-69
2023/08/02 05:58:43;;;;;;;8.35;4.15;;;16.60;99.90;;;;;;5054615;28;20037;-70
2023/08/02 06:01:08;;;;;;;10.35;4.38;;;16.60;99.90;;;;;;5050223;28;20558;-69
2023/08/02 06:03:34;;;;;;;12.15;4.22;;;16.70;99.90;;;;;;5051369;28;20032;-69
2023/08/02 06:05:59;;;;;;;6.03;3.20;;;16.90;99.90;;;;;;5051474;28;20033;-69
2023/08/02 06:08:25;;;;;;;7.25;3.50;;;17.00;99.90;;;;;;5054467;28;20028;-68
2023/08/02 06:10:50;;;;;;;5.97;3.10;;;17.10;99.90;;;;;;5052271;28;20021;-68
2023/08/02 06:13:16;;;;;;;5.05;2.83;;;17.20;95.80;;;;;;5053263;28;20364;-69
2023/08/02 06:15:42;;;;;;;7.28;3.50;;;17.30;93.60;;;;;;5051627;28;20039;-69
2023/08/02 06:18:07;;;;;;;6.63;2.92;;;17.10;87.10;;;;;;5054318;28;20028;-69
2023/08/02 06:20:33;;;;;;;6.30;3.08;;;17.20;90.00;;;;;;5053091;28;20036;-69
2023/08/02 06:22:58;;;;;;;7.10;2.80;;;17.20;89.90;;;;;;5053878;28;20116;-69
2023/08/02 06:25:24;;;;;;;5.32;2.83;;;17.10;86.10;;;;;;5053246;28;20116;-69
2023/08/02 06:27:49;;;;;;;6.10;2.60;;;17.10;92.20;;;;;;5053835;28;20110;-70
2023/08/02 06:30:15;;;;;;;7.60;2.83;;;17.10;94.60;;;;;;5052935;28;20471;-69
2023/08/02 06:32:40;;;;;;;6.43;2.92;;;17.10;93.30;;;;;;5052845;28;21178;-69
2023/08/02 06:35:06;;;;;;;9.90;3.10;;;17.10;93.50;;;;;;5053013;28;20403;-69
2023/08/02 06:37:32;;;;;;;6.95;2.92;;;17.20;91.00;;;;;;5052931;28;20478;-69
2023/08/02 06:39:57;;;;;;;6.05;2.95;;;17.20;94.60;;;;;;5052724;28;20029;-70
2023/08/02 06:42:23;;;;;;;5.07;2.75;;;17.20;94.90;;;;;;5053839;28;20039;-69
2023/08/02 06:44:48;;;;;;;7.15;3.05;;;17.30;96.40;;;;;;5052483;28;20199;-69
2023/08/02 06:47:14;;;;;;;7.00;3.20;;;17.30;96.20;;;;;;5052545;28;20060;-69
2023/08/02 06:49:40;;;;;;;4.22;2.88;;;17.40;92.70;;;;;;5051496;28;20025;-69
2023/08/02 06:52:05;;;;;;;10.52;3.22;;;17.50;93.00;;;;;;5051159;28;20025;-69
2023/08/02 06:54:31;;;;;;;5.97;3.30;;;17.50;93.30;;;;;;5058023;28;20206;-69
2023/08/02 06:56:56;;;;;;;5.45;3.15;;;17.50;96.00;;;;;;5050641;28;20029;-69
2023/08/02 06:59:23;;;;;;;6.50;3.33;;;17.60;94.40;;;;;;5050739;28;20025;-69
2023/08/02 07:01:48;;;;;;;6.50;3.22;;;17.60;94.50;;;;;;5051884;28;20082;-69
2023/08/02 07:04:14;;;;;;;5.95;3.13;;;17.50;95.50;;;;;;5050881;28;20062;-69
2023/08/02 07:06:39;;;;;;;5.20;2.88;;;17.50;97.90;;;;;;5053128;28;20060;-68
2023/08/02 07:09:05;;;;;;;6.10;3.35;;;17.50;99.90;;;;;;5052942;28;20021;-69
2023/08/02 07:11:30;;;;;;;7.30;3.60;;;17.30;99.90;;;;;;5053305;28;20390;-69
2023/08/02 07:13:56;;;;;;;9.88;4.10;;;17.00;99.90;;;;;;5050172;28;20478;-69
2023/08/02 07:16:22;;;;;;;9.02;3.97;;;16.80;99.90;;;;;;5053350;28;20032;-69
2023/08/02 07:18:47;;;;;;;7.65;3.75;;;16.80;99.90;;;;;;5051981;28;20029;-70
2023/08/02 07:21:13;;;;;;;7.43;3.95;;;16.70;99.90;;;;;;5051532;28;20036;-70
2023/08/02 07:23:38;;;;;;;9.05;4.22;;;16.60;99.90;;;;;;5050982;28;20116;-69
2023/08/02 07:26:05;;;;;;;7.45;4.55;;;16.60;99.90;;;;;;5051278;28;20071;-70
2023/08/02 07:28:31;;;;;;;9.07;5.03;;;16.50;99.90;;;;;;5052546;28;20037;-70
2023/08/02 07:31:13;;;;;;;7.13;4.32;;;16.50;99.90;;;;;;5052368;28;20025;-69
2023/08/02 07:33:39;;;;;;;9.23;4.60;;;16.50;99.90;;;;;;5052338;28;20553;-69
2023/08/02 07:36:05;;;;;;;9.25;5.25;;;16.60;99.90;;;;;;5052629;28;20112;-69
2023/08/02 07:38:31;;;;;;;8.45;4.57;;;16.50;99.90;;;;;;5049378;28;20128;-69
2023/08/02 07:40:57;;;;;;;9.60;5.03;;;16.50;99.90;;;;;;5050588;28;20562;-69
2023/08/02 07:43:22;;;;;;;8.70;4.60;;;16.50;99.90;;;;;;5052540;28;20084;-69
2023/08/02 07:45:48;;;;;;;9.88;5.20;;;16.50;99.90;;;;;;5053474;28;20033;-69
2023/08/02 07:48:14;;;;;;;9.75;5.43;;;16.50;99.90;;;;;;5051184;28;20029;-70
2023/08/02 07:50:39;;;;;;;11.35;5.57;;;16.50;99.90;;;;;;5048121;28;20037;-70
2023/08/02 07:53:06;;;;;;;9.00;5.63;;;16.40;99.90;;;;;;5051230;28;20036;-69
2023/08/02 07:55:31;;;;;;;9.25;5.95;;;16.50;99.90;;;;;;5053044;28;20059;-71
2023/08/02 07:57:57;;;;;;;11.30;5.55;;;16.60;99.90;;;;;;5053541;28;20029;-69
2023/08/02 08:00:25;;;;;;;9.05;5.47;;;16.70;99.90;;;;;;5051597;28;20124;-70
2023/08/02 08:02:50;;;;;;;12.23;6.00;;;16.80;99.90;;;;;;5053562;28;20041;-68
2023/08/02 08:05:16;;;;;;;13.05;5.95;;;16.80;99.90;;;;;;5051855;28;20056;-70
2023/08/02 08:07:41;;;;;;;8.65;5.53;;;16.90;99.90;;;;;;5051661;28;20029;-68
2023/08/02 08:10:07;;;;;;;12.10;6.18;;;17.00;99.90;;;;;;5046495;28;20028;-68
2023/08/02 08:12:33;;;;;;;10.05;5.75;;;17.10;99.90;;;;;;5047702;28;20025;-69
2023/08/02 08:14:58;;;;;;;12.55;6.03;;;17.20;99.90;;;;;;5052992;28;20032;-69
2023/08/02 08:17:24;;;;;;;9.35;6.07;;;17.30;99.90;;;;;;5051450;28;20033;-68
2023/08/02 08:19:50;;;;;;;10.23;5.72;;;17.40;99.90;;;;;;5052923;28;20390;-69
2023/08/02 08:22:15;;;;;;;10.88;5.50;;;17.30;99.90;;;;;;5051928;28;20033;-69
2023/08/02 08:24:41;;;;;;;9.43;5.47;;;17.40;99.90;;;;;;5047099;28;20390;-69
2023/08/02 08:27:07;;;;;;;10.30;6.25;;;17.20;99.90;;;;;;5036378;28;20529;-67
2023/08/02 08:29:32;;;;;;;9.50;6.03;;;17.20;99.90;;;;;;5054827;28;20429;-69
2023/08/02 08:31:58;;;;;;;10.15;5.80;;;17.20;99.90;;;;;;5038820;28;20419;-71
2023/08/02 08:34:23;;;;;;;10.70;6.35;;;17.10;99.90;;;;;;5056110;28;20360;-68
2023/08/02 08:36:49;;;;;;;7.43;6.22;;;17.00;99.90;;;;;;5054228;28;20040;-68
2023/08/02 08:39:14;;;;;;;11.45;6.75;;;17.10;99.90;;;;;;5055942;28;20036;-70
2023/08/02 08:41:40;;;;;;;13.18;6.47;;;17.00;99.90;;;;;;5055427;28;20033;-70
2023/08/02 08:44:05;;;;;;;9.77;6.00;;;17.10;99.90;;;;;;5054617;28;20041;-69
2023/08/02 08:46:32;;;;;;;7.88;5.60;;;17.10;99.90;;;;;;5047112;28;20033;-71
2023/08/02 08:48:59;;;;;;;8.48;5.88;;;17.20;99.90;;;;;;5055145;28;20029;-69
2023/08/02 08:51:27;;;;;;;6.65;5.03;;;17.40;99.90;;;;;;5055884;28;20035;-70
2023/08/02 08:53:54;;;;;;;6.82;5.10;;;17.40;99.90;;;;;;5055634;28;20029;-68
2023/08/02 08:56:26;;;;;;;6.78;4.93;;;17.60;99.90;;;;;;5053786;28;20082;-69
2023/08/02 08:58:53;;;;;;;6.90;4.43;;;17.60;99.90;;;;;;5055442;28;20029;-68
2023/08/02 09:01:20;;;;;;;6.55;4.45;;;17.60;99.90;;;;;;5053750;28;20037;-69
2023/08/02 09:03:46;;;;;;;5.85;4.60;;;17.70;99.90;;;;;;5055214;28;20052;-70
2023/08/02 09:06:15;;;;;;;7.38;4.20;;;17.70;99.90;;;;;;5053661;28;20026;-70
2023/08/02 09:08:43;;;;;;;11.25;5.00;;;17.80;99.90;;;;;;5047935;28;20029;-70
2023/08/02 09:11:09;;;;;;;5.70;3.97;;;17.80;99.90;;;;;;5070407;28;20033;-69
2023/08/02 09:13:34;;;;;;;7.43;4.03;;;17.70;99.90;;;;;;5054545;28;20044;-71
2023/08/02 09:16:06;;;;;;;6.07;4.05;;;17.70;99.90;;;;;;5054286;28;20074;-70
2023/08/02 09:18:35;;;;;;;3.75;3.30;;;17.80;99.90;;;;;;5053023;28;20037;-70
2023/08/02 09:21:00;;;;;;;8.02;3.58;;;17.70;99.90;;;;;;5052790;28;20036;-70
2023/08/02 09:23:26;;;;;;;5.05;3.45;;;17.60;99.90;;;;;;5055121;28;20037;-69
2023/08/02 09:25:51;;;;;;;5.18;2.90;;;17.60;99.90;;;;;;5053975;28;20037;-70
2023/08/02 09:28:17;;;;;;;4.05;2.40;;;17.50;99.90;;;;;;5055071;28;20056;-69
2023/08/02 09:30:42;;;;;;;5.82;2.72;;;17.50;99.90;;;;;;5053131;28;20033;-70
2023/08/02 09:33:08;;;;;;;4.47;2.55;;;17.50;99.90;;;;;;5054950;28;20033;-69
2023/08/02 09:35:51;;;;;;;2.95;2.40;;;17.60;99.90;;;;;;5070241;28;20057;-70
2023/08/02 09:38:17;;;;;;;2.88;2.08;;;17.70;99.90;;;;;;5068897;28;20112;-69
2023/08/02 09:40:47;;;;;;;3.00;1.73;;;17.70;99.90;;;;;;5052699;28;20029;-69
2023/08/02 09:43:14;;;;;;;2.33;1.67;;;17.70;99.90;;;;;;5053636;28;20029;-67
2023/08/02 09:45:40;;;;;;;2.70;1.70;;;17.60;99.90;;;;;;5045039;28;20437;-68
2023/08/02 09:48:06;;;;;;;1.70;1.60;;;17.60;99.90;;;;;;5053480;28;20074;-68
2023/08/02 09:50:32;;;;;;;1.65;1.55;;;17.60;99.90;;;;;;5053156;28;20072;-69
2023/08/02 09:53:15;;;;;;;2.33;1.73;;;17.70;99.90;;;;;;5051840;28;20025;-69
2023/08/02 09:55:46;;;;;;;1.50;1.40;;;17.70;99.90;;;;;;5050663;28;20048;-69
2023/08/02 09:58:13;;;;;;;1.58;1.48;;;17.70;99.90;;;;;;5052804;28;20036;-69
2023/08/02 10:00:39;;;;;;;3.13;1.70;;;17.80;99.90;;;;;;5053825;28;20051;-69
2023/08/02 10:03:07;;;;;;;1.45;1.25;;;17.80;99.90;;;;;;5054545;28;20029;-69
2023/08/02 10:05:35;;;;;;;3.80;1.40;;;17.90;99.90;;;;;;5053971;28;20045;-70
2023/08/02 10:08:01;;;;;;;1.35;0.90;;;18.00;99.90;;;;;;5051087;28;20029;-69
2023/08/02 10:10:30;;;;;;;1.50;1.40;;;18.00;99.90;;;;;;5052505;28;20025;-69
2023/08/02 10:13:01;;;;;;;2.30;1.20;;;18.10;99.90;;;;;;5052210;28;20541;-70
2023/08/02 10:15:27;;;;;;;1.15;1.08;;;;;;;;;;5050869;28;20089;-69
2023/08/02 10:17:55;;;;;;;4.03;0.90;;;18.80;99.90;;;;;;5052071;28;20040;-69
2023/08/02 10:20:20;;;;;;;2.15;1.00;;;19.20;99.90;;;;;;5053136;28;20039;-68
2023/08/02 10:22:48;;;;;;;1.33;1.10;;;19.40;99.90;;;;;;5052496;28;20116;-69
2023/08/02 10:25:16;;;;;;;0.70;0.70;;;19.70;99.90;;;;;;5053526;28;20068;-69
2023/08/02 10:27:43;;;;;;;2.42;1.25;;;19.80;99.90;;;;;;5051970;28;20487;-69
2023/08/02 10:30:10;;;;;;;2.35;1.02;;;19.90;99.90;;;;;;5052083;28;20517;-69
2023/08/02 10:32:35;;;;;;;6.72;1.10;;;20.10;99.90;;;;;;5053903;28;20526;-70
2023/08/02 10:35:01;;;;;;;1.30;0.65;;;20.00;99.90;;;;;;5049424;28;20064;-70
2023/08/02 10:37:54;;;;;;;2.67;1.38;;;20.10;99.90;;;;;;5052912;28;20025;-69
2023/08/02 10:40:22;;;;;;;3.00;0.80;;;20.00;99.90;;;;;;5053130;28;20028;-68
2023/08/02 10:43:05;;;;;;;2.55;0.80;;;19.90;99.90;;;;;;5053431;28;20120;-70
2023/08/02 10:45:30;;;;;;;1.27;1.00;;;19.90;99.90;;;;;;5051690;28;20159;-70
2023/08/02 10:48:25;;;;;;;0.70;0.70;;;19.90;99.90;;;;;;5052983;28;20028;-69
2023/08/02 10:50:52;;;;;;;0.47;0.47;;;19.90;99.90;;;;;;5052207;28;20028;-70
2023/08/02 10:53:18;;;;;;;4.10;0.82;;;19.80;99.90;;;;;;5051171;28;20525;-69
2023/08/02 10:56:04;;;;;;;0.80;0.65;;;19.70;99.90;;;;;;5035045;28;20037;-70
2023/08/02 10:58:46;;;;;;;0.63;0.63;;;19.70;99.90;;;;;;5050940;28;20025;-69
2023/08/02 11:01:12;;;;;;;0.50;0.50;;;19.60;99.90;;;;;;5053173;28;20029;-70
2023/08/02 11:03:39;;;;;;;0.80;0.68;;;19.60;99.90;;;;;;5051810;28;20563;-69
2023/08/02 11:06:05;;;;;;;0.70;0.60;;;19.60;99.90;;;;;;5051454;28;20041;-69
2023/08/02 11:08:46;;;;;;;1.25;0.80;;;19.60;99.90;;;;;;5052702;28;20045;-69
2023/08/02 11:11:12;;;;;;;1.60;0.90;;;19.60;99.90;;;;;;5049032;28;20074;-70
2023/08/02 11:13:39;;;;;;;2.25;2.08;;;19.70;99.90;;;;;;5053209;28;20032;-69
2023/08/02 11:16:06;;;;;;;1.13;0.70;;;19.80;99.90;;;;;;5048829;28;20029;-69
2023/08/02 11:18:32;;;;;;;3.17;0.80;;;19.70;99.90;;;;;;5050434;28;20029;-69
2023/08/02 11:21:07;;;;;;;0.68;0.68;;;19.70;99.90;;;;;;5050301;28;20037;-69
2023/08/02 11:23:33;;;;;;;1.60;0.45;;;19.70;99.90;;;;;;5053223;28;20025;-69
2023/08/02 11:26:11;;;;;;;1.08;0.60;;;19.70;99.90;;;;;;5050307;28;20031;-69
2023/08/02 11:28:44;;;;;;;2.30;0.77;;;19.80;99.90;;;;;;5052843;28;20029;-69
2023/08/02 11:31:11;;;;;;;0.90;0.50;;;19.60;99.90;;;;;;5050263;28;20033;-69
2023/08/02 11:33:38;;;;;;;2.03;0.77;;;19.50;99.90;;;;;;5049479;28;20064;-70
2023/08/02 11:36:04;;;;;;;1.77;0.60;;;19.40;99.90;;;;;;5052179;28;20033;-69
2023/08/02 11:38:30;;;;;;;0.75;0.50;;;19.20;99.90;;;;;;5051146;28;20036;-69
2023/08/02 11:40:56;;;;;;;1.92;0.77;;;19.20;99.90;;;;;;5051987;28;20454;-68
2023/08/02 11:43:38;;;;;;;2.50;0.52;;;19.40;99.90;;;;;;5043612;28;20076;-69
2023/08/02 11:46:21;;;;;;;0.32;0.30;;;20.20;99.90;;;;;;5049659;28;20425;-69
2023/08/02 11:48:48;;;;;;;1.63;0.60;;;20.80;99.90;;;;;;5050893;28;20029;-69
2023/08/02 11:51:16;;;;;;;2.05;0.75;;;21.10;99.90;;;;;;5051093;28;20025;-70
2023/08/02 11:53:59;;;;;;;1.38;0.45;;;21.40;99.90;;;;;;5051724;28;20103;-69
2023/08/02 11:56:27;;;;;;;1.05;0.30;;;21.40;99.90;;;;;;5052072;28;20021;-70
2023/08/02 11:58:53;;;;;;;0.47;0.40;;;21.40;92.20;;;;;;5053615;28;20410;-69
2023/08/02 12:01:20;;;;;;;0.40;0.30;;;21.40;99.90;;;;;;5056682;28;20033;-70
2023/08/02 12:04:03;;;;;;;1.60;0.32;;;21.40;87.00;;;;;;5054286;28;20051;-69
2023/08/02 12:06:50;;;;;;;0.88;0.30;;;21.40;91.40;;;;;;5053387;28;20033;-69
2023/08/02 12:09:17;;;;;;;1.85;0.40;;;21.70;93.40;;;;;;5055168;28;20041;-69
2023/08/02 12:11:44;;;;;;;3.08;0.65;;;21.90;87.80;;;;;;5055179;28;20032;-70
2023/08/02 12:14:10;;;;;;;1.40;0.52;;;21.80;76.10;;;;;;5055697;28;20052;-71
2023/08/02 12:16:43;;;;;;;0.65;0.40;;;21.80;66.00;;;;;;5054283;28;20435;-71
2023/08/02 12:19:10;;;;;;;2.15;0.40;;;21.90;51.00;;;;;;5037771;28;20078;-70
2023/08/02 12:21:37;;;;;;;0.45;0.30;;;21.70;50.50;;;;;;5055245;28;20053;-70
2023/08/02 12:24:13;;;;;;;1.02;0.68;;;22.00;60.30;;;;;;5056179;28;20057;-71
2023/08/02 12:26:39;;;;;;;0.40;0.40;;;22.20;44.00;;;;;;5053120;28;20032;-70
2023/08/02 12:29:05;;;;;;;0.22;0.22;;;22.00;31.20;;;;;;5055280;28;20108;-70
2023/08/02 12:31:48;;;;;;;0.68;0.30;;;22.00;29.50;;;;;;5055238;28;20490;-70
2023/08/02 12:34:13;;;;;;;0.50;0.47;;;22.00;26.20;;;;;;5055534;28;20021;-71
2023/08/02 12:36:39;;;;;;;0.28;0.20;;;22.00;34.10;;;;;;5057013;28;20028;-71
2023/08/02 12:39:05;;;;;;;0.80;0.77;;;22.00;36.60;;;;;;5055734;28;20036;-71
2023/08/02 12:41:30;;;;;;;0.70;0.70;;;21.90;43.20;;;;;;5054518;28;20036;-72